Altamont, Utah
Current Conditions -  °F | °C
As of 6:53 PM on Friday 24 Oct 2014 (Local Time) from KVEL Reporting Station
Clear Clear  
Wind Chill: 57°   Ceiling: Unl
Heat Index: 57°   Visibility: 10mi
Dew Point: 37°   Wind: 7mph
Humidity: 47%   Direction: 270°W
Pressure: 30.2"   Gusts: NA
Location:  40.36°N, 110.29°W
Report Text: KVEL 250053Z AUTO 27006KT 10SM CLR 14/03 A3020 RMK AO2 SLP206 T01390028
Loading
Personal Weather Stations






























Interactive Weather Map New forecast layout! Learn more

10-Day Weather Forecast

Advertisements
Track Severe Weather on mobile